sensor_id;sensor_type;location;lat;lon;timestamp;P1;durP1;ratioP1;P2;durP2;ratioP2
2039;SDS011;1025;42.686;23.350;2023-08-24T00:00:57;13.50;;;12.27;;
2039;SDS011;1025;42.686;23.350;2023-08-24T00:03:26;12.80;;;11.70;;
2039;SDS011;1025;42.686;23.350;2023-08-24T00:05:52;12.60;;;11.60;;
2039;SDS011;1025;42.686;23.350;2023-08-24T00:08:19;11.80;;;10.70;;
2039;SDS011;1025;42.686;23.350;2023-08-24T00:10:45;13.03;;;11.80;;
2039;SDS011;1025;42.686;23.350;2023-08-24T00:13:12;11.37;;;10.20;;
2039;SDS011;1025;42.686;23.350;2023-08-24T00:15:40;13.00;;;11.70;;
2039;SDS011;1025;42.686;23.350;2023-08-24T00:18:07;14.63;;;13.47;;
2039;SDS011;1025;42.686;23.350;2023-08-24T00:20:33;16.13;;;14.47;;
2039;SDS011;1025;42.686;23.350;2023-08-24T00:23:00;14.13;;;13.00;;
2039;SDS011;1025;42.686;23.350;2023-08-24T00:25:27;12.97;;;12.00;;
2039;SDS011;1025;42.686;23.350;2023-08-24T00:27:53;13.63;;;12.53;;
2039;SDS011;1025;42.686;23.350;2023-08-24T00:30:20;13.53;;;12.43;;
2039;SDS011;1025;42.686;23.350;2023-08-24T00:32:48;14.40;;;13.20;;
2039;SDS011;1025;42.686;23.350;2023-08-24T00:35:15;14.93;;;13.73;;
2039;SDS011;1025;42.686;23.350;2023-08-24T00:37:44;14.60;;;13.20;;
2039;SDS011;1025;42.686;23.350;2023-08-24T00:40:10;12.83;;;11.77;;
2039;SDS011;1025;42.686;23.350;2023-08-24T00:42:37;13.10;;;12.00;;
2039;SDS011;1025;42.686;23.350;2023-08-24T00:45:05;13.50;;;12.20;;
2039;SDS011;1025;42.686;23.350;2023-08-24T00:47:32;14.30;;;13.00;;
2039;SDS011;1025;42.686;23.350;2023-08-24T00:50:00;19.23;;;12.17;;
2039;SDS011;1025;42.686;23.350;2023-08-24T00:52:28;14.87;;;13.37;;
2039;SDS011;1025;42.686;23.350;2023-08-24T00:54:55;15.13;;;13.53;;
2039;SDS011;1025;42.686;23.350;2023-08-24T00:57:21;13.17;;;11.83;;
2039;SDS011;1025;42.686;23.350;2023-08-24T00:59:48;12.93;;;11.67;;
2039;SDS011;1025;42.686;23.350;2023-08-24T01:02:15;14.67;;;13.47;;
2039;SDS011;1025;42.686;23.350;2023-08-24T01:04:41;14.50;;;13.50;;
2039;SDS011;1025;42.686;23.350;2023-08-24T01:07:10;14.90;;;13.70;;
2039;SDS011;1025;42.686;23.350;2023-08-24T01:09:39;13.87;;;12.50;;
2039;SDS011;1025;42.686;23.350;2023-08-24T01:12:09;14.13;;;12.83;;
2039;SDS011;1025;42.686;23.350;2023-08-24T01:14:43;15.73;;;13.97;;
2039;SDS011;1025;42.686;23.350;2023-08-24T01:17:13;14.63;;;13.27;;
2039;SDS011;1025;42.686;23.350;2023-08-24T01:19:41;15.10;;;13.80;;
2039;SDS011;1025;42.686;23.350;2023-08-24T01:22:14;15.07;;;13.60;;
2039;SDS011;1025;42.686;23.350;2023-08-24T01:24:46;13.13;;;12.03;;
2039;SDS011;1025;42.686;23.350;2023-08-24T01:27:17;12.93;;;11.83;;
2039;SDS011;1025;42.686;23.350;2023-08-24T01:29:44;14.77;;;13.50;;
2039;SDS011;1025;42.686;23.350;2023-08-24T01:32:11;13.43;;;12.33;;
2039;SDS011;1025;42.686;23.350;2023-08-24T01:34:38;15.97;;;14.47;;
2039;SDS011;1025;42.686;23.350;2023-08-24T01:37:05;13.70;;;12.70;;
2039;SDS011;1025;42.686;23.350;2023-08-24T01:39:34;14.93;;;13.60;;
2039;SDS011;1025;42.686;23.350;2023-08-24T01:42:02;15.57;;;14.17;;
2039;SDS011;1025;42.686;23.350;2023-08-24T01:44:30;15.23;;;13.23;;
2039;SDS011;1025;42.686;23.350;2023-08-24T01:47:00;14.57;;;13.33;;
2039;SDS011;1025;42.686;23.350;2023-08-24T01:49:28;14.90;;;13.40;;
2039;SDS011;1025;42.686;23.350;2023-08-24T01:51:55;15.73;;;14.30;;
2039;SDS011;1025;42.686;23.350;2023-08-24T01:54:22;16.10;;;14.13;;
2039;SDS011;1025;42.686;23.350;2023-08-24T01:56:49;16.37;;;13.63;;
2039;SDS011;1025;42.686;23.350;2023-08-24T01:59:18;15.73;;;14.13;;
2039;SDS011;1025;42.686;23.350;2023-08-24T02:01:46;16.27;;;13.80;;
2039;SDS011;1025;42.686;23.350;2023-08-24T02:04:12;14.60;;;13.10;;
2039;SDS011;1025;42.686;23.350;2023-08-24T02:06:39;15.17;;;13.73;;
2039;SDS011;1025;42.686;23.350;2023-08-24T02:09:06;15.77;;;14.27;;
2039;SDS011;1025;42.686;23.350;2023-08-24T02:11:32;15.80;;;14.20;;
2039;SDS011;1025;42.686;23.350;2023-08-24T02:14:01;16.50;;;14.90;;
2039;SDS011;1025;42.686;23.350;2023-08-24T02:16:27;17.63;;;16.13;;
2039;SDS011;1025;42.686;23.350;2023-08-24T02:18:55;16.07;;;14.67;;
2039;SDS011;1025;42.686;23.350;2023-08-24T02:21:22;16.83;;;15.10;;
2039;SDS011;1025;42.686;23.350;2023-08-24T02:23:51;17.13;;;15.33;;
2039;SDS011;1025;42.686;23.350;2023-08-24T02:26:17;17.83;;;14.90;;
2039;SDS011;1025;42.686;23.350;2023-08-24T02:28:45;17.53;;;15.87;;
2039;SDS011;1025;42.686;23.350;2023-08-24T02:31:12;15.63;;;14.37;;
2039;SDS011;1025;42.686;23.350;2023-08-24T02:33:38;15.80;;;14.50;;
2039;SDS011;1025;42.686;23.350;2023-08-24T02:36:06;16.37;;;14.83;;
2039;SDS011;1025;42.686;23.350;2023-08-24T02:38:33;16.53;;;15.20;;
2039;SDS011;1025;42.686;23.350;2023-08-24T02:41:00;16.80;;;15.20;;
2039;SDS011;1025;42.686;23.350;2023-08-24T02:43:27;16.50;;;15.20;;
2039;SDS011;1025;42.686;23.350;2023-08-24T02:45:53;16.20;;;14.80;;
2039;SDS011;1025;42.686;23.350;2023-08-24T02:48:20;16.33;;;14.57;;
2039;SDS011;1025;42.686;23.350;2023-08-24T02:50:46;14.53;;;12.90;;
2039;SDS011;1025;42.686;23.350;2023-08-24T02:53:15;15.30;;;13.23;;
2039;SDS011;1025;42.686;23.350;2023-08-24T02:55:41;14.47;;;13.07;;
2039;SDS011;1025;42.686;23.350;2023-08-24T02:58:08;13.67;;;12.67;;
2039;SDS011;1025;42.686;23.350;2023-08-24T03:00:37;14.27;;;13.03;;
2039;SDS011;1025;42.686;23.350;2023-08-24T03:03:04;18.67;;;13.70;;
2039;SDS011;1025;42.686;23.350;2023-08-24T03:05:31;14.70;;;13.03;;
2039;SDS011;1025;42.686;23.350;2023-08-24T03:07:58;14.37;;;13.17;;
2039;SDS011;1025;42.686;23.350;2023-08-24T03:10:26;14.80;;;12.80;;
2039;SDS011;1025;42.686;23.350;2023-08-24T03:12:52;14.00;;;12.83;;
2039;SDS011;1025;42.686;23.350;2023-08-24T03:15:19;17.60;;;15.43;;
2039;SDS011;1025;42.686;23.350;2023-08-24T03:17:48;14.87;;;13.27;;
2039;SDS011;1025;42.686;23.350;2023-08-24T03:20:15;15.30;;;13.87;;
2039;SDS011;1025;42.686;23.350;2023-08-24T03:22:41;16.00;;;14.27;;
2039;SDS011;1025;42.686;23.350;2023-08-24T03:25:09;16.27;;;13.60;;
2039;SDS011;1025;42.686;23.350;2023-08-24T03:27:38;14.00;;;12.90;;
2039;SDS011;1025;42.686;23.350;2023-08-24T03:30:05;17.00;;;13.50;;
2039;SDS011;1025;42.686;23.350;2023-08-24T03:32:32;16.37;;;14.67;;
2039;SDS011;1025;42.686;23.350;2023-08-24T03:34:59;17.10;;;14.00;;
2039;SDS011;1025;42.686;23.350;2023-08-24T03:37:25;16.13;;;14.53;;
2039;SDS011;1025;42.686;23.350;2023-08-24T03:40:02;17.47;;;15.87;;
2039;SDS011;1025;42.686;23.350;2023-08-24T03:42:32;22.77;;;18.00;;
2039;SDS011;1025;42.686;23.350;2023-08-24T03:45:02;18.20;;;16.40;;
2039;SDS011;1025;42.686;23.350;2023-08-24T03:47:28;23.90;;;17.73;;
2039;SDS011;1025;42.686;23.350;2023-08-24T03:49:55;20.53;;;16.80;;
2039;SDS011;1025;42.686;23.350;2023-08-24T03:52:24;17.73;;;15.93;;
2039;SDS011;1025;42.686;23.350;2023-08-24T03:54:53;21.20;;;16.10;;
2039;SDS011;1025;42.686;23.350;2023-08-24T03:57:20;18.27;;;16.63;;
2039;SDS011;1025;42.686;23.350;2023-08-24T03:59:46;20.30;;;17.00;;
2039;SDS011;1025;42.686;23.350;2023-08-24T04:02:14;17.27;;;15.70;;
2039;SDS011;1025;42.686;23.350;2023-08-24T04:04:41;18.37;;;16.60;;
2039;SDS011;1025;42.686;23.350;2023-08-24T04:07:07;18.43;;;16.50;;
2039;SDS011;1025;42.686;23.350;2023-08-24T04:09:34;36.03;;;32.63;;
2039;SDS011;1025;42.686;23.350;2023-08-24T04:12:00;20.10;;;18.20;;
2039;SDS011;1025;42.686;23.350;2023-08-24T04:14:27;17.97;;;16.37;;
2039;SDS011;1025;42.686;23.350;2023-08-24T04:16:53;17.10;;;15.50;;
2039;SDS011;1025;42.686;23.350;2023-08-24T04:19:22;17.93;;;16.27;;
2039;SDS011;1025;42.686;23.350;2023-08-24T04:21:49;21.83;;;19.17;;
2039;SDS011;1025;42.686;23.350;2023-08-24T04:24:15;18.80;;;16.90;;
2039;SDS011;1025;42.686;23.350;2023-08-24T04:26:42;26.80;;;16.50;;
2039;SDS011;1025;42.686;23.350;2023-08-24T04:29:09;21.23;;;16.77;;
2039;SDS011;1025;42.686;23.350;2023-08-24T04:31:36;21.40;;;17.30;;
2039;SDS011;1025;42.686;23.350;2023-08-24T04:34:05;18.63;;;16.70;;
2039;SDS011;1025;42.686;23.350;2023-08-24T04:36:33;20.20;;;17.30;;
2039;SDS011;1025;42.686;23.350;2023-08-24T04:39:00;16.70;;;15.10;;
2039;SDS011;1025;42.686;23.350;2023-08-24T04:41:27;19.40;;;17.57;;
2039;SDS011;1025;42.686;23.350;2023-08-24T04:43:53;17.60;;;16.10;;
2039;SDS011;1025;42.686;23.350;2023-08-24T04:46:20;19.20;;;17.13;;
2039;SDS011;1025;42.686;23.350;2023-08-24T04:48:47;18.50;;;16.80;;
2039;SDS011;1025;42.686;23.350;2023-08-24T04:51:14;21.57;;;17.17;;
2039;SDS011;1025;42.686;23.350;2023-08-24T04:53:42;21.20;;;18.70;;
2039;SDS011;1025;42.686;23.350;2023-08-24T04:56:09;19.67;;;15.67;;
2039;SDS011;1025;42.686;23.350;2023-08-24T04:58:39;20.53;;;17.40;;
2039;SDS011;1025;42.686;23.350;2023-08-24T05:01:05;22.13;;;18.07;;
2039;SDS011;1025;42.686;23.350;2023-08-24T05:03:32;21.87;;;19.60;;
2039;SDS011;1025;42.686;23.350;2023-08-24T05:06:01;18.77;;;17.10;;
2039;SDS011;1025;42.686;23.350;2023-08-24T05:08:27;18.60;;;16.77;;
2039;SDS011;1025;42.686;23.350;2023-08-24T05:10:55;21.17;;;19.03;;
2039;SDS011;1025;42.686;23.350;2023-08-24T05:13:22;24.10;;;19.07;;
2039;SDS011;1025;42.686;23.350;2023-08-24T05:15:49;19.10;;;17.10;;
2039;SDS011;1025;42.686;23.350;2023-08-24T05:18:15;18.20;;;16.47;;
2039;SDS011;1025;42.686;23.350;2023-08-24T05:20:41;19.73;;;17.97;;
2039;SDS011;1025;42.686;23.350;2023-08-24T05:23:08;17.87;;;16.17;;
2039;SDS011;1025;42.686;23.350;2023-08-24T05:25:34;19.70;;;17.77;;
2039;SDS011;1025;42.686;23.350;2023-08-24T05:28:03;18.10;;;16.10;;
2039;SDS011;1025;42.686;23.350;2023-08-24T05:30:29;21.77;;;18.03;;
2039;SDS011;1025;42.686;23.350;2023-08-24T05:32:56;18.67;;;16.70;;
2039;SDS011;1025;42.686;23.350;2023-08-24T05:35:25;17.50;;;15.93;;
2039;SDS011;1025;42.686;23.350;2023-08-24T05:37:52;20.03;;;18.03;;
2039;SDS011;1025;42.686;23.350;2023-08-24T05:40:19;19.53;;;17.53;;
2039;SDS011;1025;42.686;23.350;2023-08-24T05:42:45;20.93;;;17.63;;
2039;SDS011;1025;42.686;23.350;2023-08-24T05:45:13;24.07;;;16.50;;
2039;SDS011;1025;42.686;23.350;2023-08-24T05:47:39;20.27;;;16.90;;
2039;SDS011;1025;42.686;23.350;2023-08-24T05:50:08;19.33;;;17.63;;
2039;SDS011;1025;42.686;23.350;2023-08-24T05:52:36;18.03;;;16.23;;
2039;SDS011;1025;42.686;23.350;2023-08-24T05:55:03;22.67;;;17.37;;
2039;SDS011;1025;42.686;23.350;2023-08-24T05:57:30;21.10;;;18.90;;
2039;SDS011;1025;42.686;23.350;2023-08-24T05:59:56;21.67;;;16.80;;
2039;SDS011;1025;42.686;23.350;2023-08-24T06:02:24;18.93;;;17.27;;
2039;SDS011;1025;42.686;23.350;2023-08-24T06:04:51;18.10;;;16.40;;
2039;SDS011;1025;42.686;23.350;2023-08-24T06:07:18;18.47;;;16.67;;
2039;SDS011;1025;42.686;23.350;2023-08-24T06:09:44;20.50;;;18.00;;
2039;SDS011;1025;42.686;23.350;2023-08-24T06:12:11;19.00;;;17.10;;
2039;SDS011;1025;42.686;23.350;2023-08-24T06:14:37;18.40;;;16.50;;
2039;SDS011;1025;42.686;23.350;2023-08-24T06:17:04;23.00;;;18.37;;
2039;SDS011;1025;42.686;23.350;2023-08-24T06:19:32;18.17;;;16.43;;
2039;SDS011;1025;42.686;23.350;2023-08-24T06:21:58;21.47;;;18.13;;
2039;SDS011;1025;42.686;23.350;2023-08-24T06:24:25;19.07;;;16.43;;
2039;SDS011;1025;42.686;23.350;2023-08-24T06:26:51;19.60;;;16.03;;
2039;SDS011;1025;42.686;23.350;2023-08-24T06:29:18;17.80;;;16.20;;
2039;SDS011;1025;42.686;23.350;2023-08-24T06:31:45;17.83;;;15.60;;
2039;SDS011;1025;42.686;23.350;2023-08-24T06:34:11;18.30;;;16.50;;
2039;SDS011;1025;42.686;23.350;2023-08-24T06:36:39;16.50;;;14.87;;
2039;SDS011;1025;42.686;23.350;2023-08-24T06:39:06;18.33;;;16.20;;
2039;SDS011;1025;42.686;23.350;2023-08-24T06:41:33;20.50;;;17.83;;
2039;SDS011;1025;42.686;23.350;2023-08-24T06:44:00;18.83;;;17.00;;
2039;SDS011;1025;42.686;23.350;2023-08-24T06:46:29;17.90;;;16.10;;
2039;SDS011;1025;42.686;23.350;2023-08-24T06:48:54;19.30;;;16.10;;
2039;SDS011;1025;42.686;23.350;2023-08-24T06:51:21;18.13;;;16.40;;
2039;SDS011;1025;42.686;23.350;2023-08-24T06:53:49;19.07;;;17.10;;
2039;SDS011;1025;42.686;23.350;2023-08-24T06:56:16;17.47;;;15.70;;
2039;SDS011;1025;42.686;23.350;2023-08-24T06:58:48;25.07;;;19.47;;
2039;SDS011;1025;42.686;23.350;2023-08-24T07:01:14;18.87;;;17.00;;
2039;SDS011;1025;42.686;23.350;2023-08-24T07:03:41;17.57;;;16.17;;
2039;SDS011;1025;42.686;23.350;2023-08-24T07:06:10;24.00;;;18.03;;
2039;SDS011;1025;42.686;23.350;2023-08-24T07:08:37;20.00;;;17.00;;
2039;SDS011;1025;42.686;23.350;2023-08-24T07:11:06;17.20;;;15.50;;
2039;SDS011;1025;42.686;23.350;2023-08-24T07:13:32;20.00;;;17.43;;
2039;SDS011;1025;42.686;23.350;2023-08-24T07:15:59;20.43;;;15.70;;
2039;SDS011;1025;42.686;23.350;2023-08-24T07:18:28;18.07;;;15.70;;
2039;SDS011;1025;42.686;23.350;2023-08-24T07:20:54;18.20;;;16.43;;
2039;SDS011;1025;42.686;23.350;2023-08-24T07:23:21;17.37;;;15.67;;
2039;SDS011;1025;42.686;23.350;2023-08-24T07:25:48;19.80;;;17.90;;
2039;SDS011;1025;42.686;23.350;2023-08-24T07:28:16;17.13;;;15.33;;
2039;SDS011;1025;42.686;23.350;2023-08-24T07:30:42;17.97;;;16.23;;
2039;SDS011;1025;42.686;23.350;2023-08-24T07:33:09;19.90;;;16.33;;
2039;SDS011;1025;42.686;23.350;2023-08-24T07:35:36;26.53;;;17.73;;
2039;SDS011;1025;42.686;23.350;2023-08-24T07:38:03;20.50;;;15.90;;
2039;SDS011;1025;42.686;23.350;2023-08-24T07:40:30;19.73;;;17.20;;
2039;SDS011;1025;42.686;23.350;2023-08-24T07:42:59;19.00;;;15.90;;
2039;SDS011;1025;42.686;23.350;2023-08-24T07:45:27;20.70;;;18.80;;
2039;SDS011;1025;42.686;23.350;2023-08-24T07:47:56;15.90;;;14.50;;
2039;SDS011;1025;42.686;23.350;2023-08-24T07:50:22;16.37;;;14.97;;
2039;SDS011;1025;42.686;23.350;2023-08-24T07:52:51;14.97;;;13.40;;
2039;SDS011;1025;42.686;23.350;2023-08-24T07:55:17;16.97;;;15.67;;
2039;SDS011;1025;42.686;23.350;2023-08-24T07:57:44;17.07;;;15.53;;
2039;SDS011;1025;42.686;23.350;2023-08-24T08:00:13;18.10;;;16.43;;
2039;SDS011;1025;42.686;23.350;2023-08-24T08:02:41;24.53;;;17.00;;
2039;SDS011;1025;42.686;23.350;2023-08-24T08:05:08;17.40;;;15.63;;
2039;SDS011;1025;42.686;23.350;2023-08-24T08:07:37;14.90;;;13.80;;
2039;SDS011;1025;42.686;23.350;2023-08-24T08:10:04;15.93;;;14.33;;
2039;SDS011;1025;42.686;23.350;2023-08-24T08:12:31;16.43;;;14.07;;
2039;SDS011;1025;42.686;23.350;2023-08-24T08:14:58;17.77;;;16.00;;
2039;SDS011;1025;42.686;23.350;2023-08-24T08:17:24;16.07;;;13.30;;
2039;SDS011;1025;42.686;23.350;2023-08-24T08:19:56;15.13;;;13.67;;
2039;SDS011;1025;42.686;23.350;2023-08-24T08:22:25;16.60;;;15.20;;
2039;SDS011;1025;42.686;23.350;2023-08-24T08:24:52;15.03;;;13.53;;
2039;SDS011;1025;42.686;23.350;2023-08-24T08:27:21;18.17;;;15.33;;
2039;SDS011;1025;42.686;23.350;2023-08-24T08:29:48;15.10;;;12.77;;
2039;SDS011;1025;42.686;23.350;2023-08-24T08:32:14;14.70;;;13.43;;
2039;SDS011;1025;42.686;23.350;2023-08-24T08:34:41;14.00;;;12.80;;
2039;SDS011;1025;42.686;23.350;2023-08-24T08:37:08;13.67;;;12.70;;
2039;SDS011;1025;42.686;23.350;2023-08-24T08:39:35;15.03;;;13.83;;
2039;SDS011;1025;42.686;23.350;2023-08-24T08:42:02;16.17;;;12.43;;
2039;SDS011;1025;42.686;23.350;2023-08-24T08:44:30;13.57;;;12.47;;
2039;SDS011;1025;42.686;23.350;2023-08-24T08:46:57;21.63;;;14.70;;
2039;SDS011;1025;42.686;23.350;2023-08-24T08:49:23;12.77;;;11.83;;
2039;SDS011;1025;42.686;23.350;2023-08-24T08:51:50;17.10;;;13.27;;
2039;SDS011;1025;42.686;23.350;2023-08-24T08:54:18;14.23;;;12.80;;
2039;SDS011;1025;42.686;23.350;2023-08-24T08:56:45;12.87;;;11.80;;
2039;SDS011;1025;42.686;23.350;2023-08-24T08:59:11;12.90;;;11.80;;
2039;SDS011;1025;42.686;23.350;2023-08-24T09:01:39;16.53;;;13.70;;
2039;SDS011;1025;42.686;23.350;2023-08-24T09:04:06;13.67;;;12.57;;
2039;SDS011;1025;42.686;23.350;2023-08-24T09:06:42;14.00;;;12.90;;
2039;SDS011;1025;42.686;23.350;2023-08-24T09:09:14;13.43;;;11.53;;
2039;SDS011;1025;42.686;23.350;2023-08-24T09:11:45;13.93;;;12.63;;
2039;SDS011;1025;42.686;23.350;2023-08-24T09:14:13;13.13;;;11.93;;
2039;SDS011;1025;42.686;23.350;2023-08-24T09:16:40;12.90;;;11.80;;
2039;SDS011;1025;42.686;23.350;2023-08-24T09:19:10;14.93;;;13.23;;
2039;SDS011;1025;42.686;23.350;2023-08-24T09:21:42;12.57;;;11.43;;
2039;SDS011;1025;42.686;23.350;2023-08-24T09:24:08;15.73;;;14.00;;
2039;SDS011;1025;42.686;23.350;2023-08-24T09:26:37;13.57;;;12.07;;
2039;SDS011;1025;42.686;23.350;2023-08-24T09:29:12;15.13;;;12.00;;
2039;SDS011;1025;42.686;23.350;2023-08-24T09:31:39;14.93;;;11.80;;
2039;SDS011;1025;42.686;23.350;2023-08-24T09:34:06;18.97;;;12.07;;
2039;SDS011;1025;42.686;23.350;2023-08-24T09:36:32;11.87;;;10.97;;
2039;SDS011;1025;42.686;23.350;2023-08-24T09:38:59;15.17;;;12.80;;
2039;SDS011;1025;42.686;23.350;2023-08-24T09:41:36;13.20;;;12.10;;
2039;SDS011;1025;42.686;23.350;2023-08-24T09:44:03;12.80;;;11.50;;
2039;SDS011;1025;42.686;23.350;2023-08-24T09:46:31;12.23;;;11.03;;
2039;SDS011;1025;42.686;23.350;2023-08-24T09:48:58;13.07;;;11.73;;
2039;SDS011;1025;42.686;23.350;2023-08-24T09:51:26;11.47;;;10.77;;
2039;SDS011;1025;42.686;23.350;2023-08-24T09:53:53;12.70;;;11.60;;
2039;SDS011;1025;42.686;23.350;2023-08-24T09:56:25;14.67;;;13.57;;
2039;SDS011;1025;42.686;23.350;2023-08-24T09:58:52;15.33;;;13.93;;
2039;SDS011;1025;42.686;23.350;2023-08-24T10:01:20;11.50;;;10.60;;
2039;SDS011;1025;42.686;23.350;2023-08-24T10:03:48;12.33;;;9.73;;
2039;SDS011;1025;42.686;23.350;2023-08-24T10:06:17;10.40;;;9.60;;
2039;SDS011;1025;42.686;23.350;2023-08-24T10:08:47;11.30;;;10.50;;
2039;SDS011;1025;42.686;23.350;2023-08-24T10:11:14;10.43;;;9.67;;
2039;SDS011;1025;42.686;23.350;2023-08-24T10:13:43;9.73;;;8.93;;
2039;SDS011;1025;42.686;23.350;2023-08-24T10:16:13;9.90;;;9.10;;
2039;SDS011;1025;42.686;23.350;2023-08-24T10:18:40;10.90;;;9.90;;
2039;SDS011;1025;42.686;23.350;2023-08-24T10:21:08;10.00;;;9.40;;
2039;SDS011;1025;42.686;23.350;2023-08-24T10:23:34;10.83;;;9.97;;
2039;SDS011;1025;42.686;23.350;2023-08-24T10:26:02;9.80;;;9.10;;
2039;SDS011;1025;42.686;23.350;2023-08-24T10:28:29;10.60;;;9.80;;
2039;SDS011;1025;42.686;23.350;2023-08-24T10:30:57;11.07;;;10.17;;
2039;SDS011;1025;42.686;23.350;2023-08-24T10:33:25;12.47;;;11.13;;
2039;SDS011;1025;42.686;23.350;2023-08-24T10:35:52;8.93;;;8.30;;
2039;SDS011;1025;42.686;23.350;2023-08-24T10:38:27;10.50;;;9.70;;
2039;SDS011;1025;42.686;23.350;2023-08-24T10:40:54;9.33;;;8.73;;
2039;SDS011;1025;42.686;23.350;2023-08-24T10:43:22;11.47;;;10.47;;
2039;SDS011;1025;42.686;23.350;2023-08-24T10:45:55;14.83;;;12.57;;
2039;SDS011;1025;42.686;23.350;2023-08-24T10:48:26;10.70;;;9.93;;
2039;SDS011;1025;42.686;23.350;2023-08-24T10:53:43;11.27;;;10.37;;
2039;SDS011;1025;42.686;23.350;2023-08-24T10:56:10;11.83;;;11.03;;
2039;SDS011;1025;42.686;23.350;2023-08-24T10:58:38;11.57;;;10.40;;
2039;SDS011;1025;42.686;23.350;2023-08-24T11:01:06;11.17;;;10.30;;
2039;SDS011;1025;42.686;23.350;2023-08-24T11:03:33;10.63;;;9.40;;
2039;SDS011;1025;42.686;23.350;2023-08-24T11:06:00;11.10;;;10.00;;
2039;SDS011;1025;42.686;23.350;2023-08-24T11:11:19;11.93;;;10.93;;
2039;SDS011;1025;42.686;23.350;2023-08-24T11:19:15;12.40;;;11.20;;
2039;SDS011;1025;42.686;23.350;2023-08-24T11:21:42;11.43;;;10.33;;
2039;SDS011;1025;42.686;23.350;2023-08-24T11:24:08;11.70;;;10.70;;
2039;SDS011;1025;42.686;23.350;2023-08-24T11:26:38;11.40;;;10.50;;
2039;SDS011;1025;42.686;23.350;2023-08-24T11:29:05;10.10;;;9.40;;
2039;SDS011;1025;42.686;23.350;2023-08-24T11:31:32;12.70;;;11.70;;
2039;SDS011;1025;42.686;23.350;2023-08-24T11:33:59;12.70;;;11.40;;
2039;SDS011;1025;42.686;23.350;2023-08-24T11:36:26;10.80;;;9.80;;
2039;SDS011;1025;42.686;23.350;2023-08-24T11:38:55;15.43;;;11.80;;
2039;SDS011;1025;42.686;23.350;2023-08-24T11:41:22;14.10;;;12.10;;
2039;SDS011;1025;42.686;23.350;2023-08-24T11:43:57;12.47;;;11.10;;
2039;SDS011;1025;42.686;23.350;2023-08-24T11:46:24;12.00;;;11.00;;
2039;SDS011;1025;42.686;23.350;2023-08-24T11:48:50;10.40;;;9.20;;
2039;SDS011;1025;42.686;23.350;2023-08-24T11:51:17;12.77;;;11.60;;
2039;SDS011;1025;42.686;23.350;2023-08-24T11:53:45;12.63;;;11.50;;
2039;SDS011;1025;42.686;23.350;2023-08-24T11:56:12;12.10;;;10.43;;
2039;SDS011;1025;42.686;23.350;2023-08-24T11:58:42;12.70;;;11.60;;
2039;SDS011;1025;42.686;23.350;2023-08-24T12:01:10;11.80;;;10.83;;
2039;SDS011;1025;42.686;23.350;2023-08-24T12:03:37;12.43;;;11.37;;
2039;SDS011;1025;42.686;23.350;2023-08-24T12:06:09;11.50;;;10.63;;
2039;SDS011;1025;42.686;23.350;2023-08-24T12:08:37;12.10;;;10.90;;
2039;SDS011;1025;42.686;23.350;2023-08-24T12:11:03;11.73;;;10.30;;
2039;SDS011;1025;42.686;23.350;2023-08-24T12:13:32;10.80;;;9.77;;
2039;SDS011;1025;42.686;23.350;2023-08-24T12:15:59;11.90;;;10.10;;
2039;SDS011;1025;42.686;23.350;2023-08-24T12:18:28;13.60;;;10.57;;
2039;SDS011;1025;42.686;23.350;2023-08-24T12:20:56;11.00;;;10.10;;
2039;SDS011;1025;42.686;23.350;2023-08-24T12:23:26;10.90;;;9.90;;
2039;SDS011;1025;42.686;23.350;2023-08-24T12:25:53;15.90;;;11.33;;
2039;SDS011;1025;42.686;23.350;2023-08-24T12:28:20;12.13;;;11.03;;
2039;SDS011;1025;42.686;23.350;2023-08-24T12:30:47;13.87;;;11.40;;
2039;SDS011;1025;42.686;23.350;2023-08-24T12:33:23;15.13;;;11.40;;
2039;SDS011;1025;42.686;23.350;2023-08-24T12:35:52;15.73;;;12.63;;
2039;SDS011;1025;42.686;23.350;2023-08-24T12:38:18;12.37;;;9.17;;
2039;SDS011;1025;42.686;23.350;2023-08-24T12:40:45;9.90;;;8.90;;
2039;SDS011;1025;42.686;23.350;2023-08-24T12:43:11;11.07;;;9.93;;
2039;SDS011;1025;42.686;23.350;2023-08-24T12:45:40;10.57;;;9.57;;
2039;SDS011;1025;42.686;23.350;2023-08-24T12:48:07;10.60;;;9.73;;
2039;SDS011;1025;42.686;23.350;2023-08-24T12:50:34;10.93;;;10.00;;
2039;SDS011;1025;42.686;23.350;2023-08-24T12:53:02;10.63;;;9.33;;
2039;SDS011;1025;42.686;23.350;2023-08-24T12:55:31;11.73;;;9.87;;
2039;SDS011;1025;42.686;23.350;2023-08-24T12:57:58;10.13;;;9.33;;
2039;SDS011;1025;42.686;23.350;2023-08-24T13:00:24;11.20;;;10.20;;
2039;SDS011;1025;42.686;23.350;2023-08-24T13:02:51;13.27;;;12.00;;
2039;SDS011;1025;42.686;23.350;2023-08-24T13:05:18;14.70;;;11.30;;
2039;SDS011;1025;42.686;23.350;2023-08-24T13:07:45;11.67;;;10.67;;
2039;SDS011;1025;42.686;23.350;2023-08-24T13:10:13;12.93;;;10.13;;
2039;SDS011;1025;42.686;23.350;2023-08-24T13:12:41;14.40;;;11.63;;
2039;SDS011;1025;42.686;23.350;2023-08-24T13:15:08;11.70;;;10.30;;
2039;SDS011;1025;42.686;23.350;2023-08-24T13:17:36;11.43;;;10.40;;
2039;SDS011;1025;42.686;23.350;2023-08-24T13:20:03;11.90;;;10.70;;
2039;SDS011;1025;42.686;23.350;2023-08-24T13:22:33;13.13;;;11.87;;
2039;SDS011;1025;42.686;23.350;2023-08-24T13:25:00;11.90;;;10.77;;
2039;SDS011;1025;42.686;23.350;2023-08-24T13:27:28;14.70;;;13.40;;
2039;SDS011;1025;42.686;23.350;2023-08-24T13:29:56;12.57;;;11.37;;
2039;SDS011;1025;42.686;23.350;2023-08-24T13:32:25;18.87;;;12.40;;
2039;SDS011;1025;42.686;23.350;2023-08-24T13:34:52;10.10;;;9.40;;
2039;SDS011;1025;42.686;23.350;2023-08-24T13:37:18;13.73;;;12.40;;
2039;SDS011;1025;42.686;23.350;2023-08-24T13:39:45;12.10;;;10.87;;
2039;SDS011;1025;42.686;23.350;2023-08-24T13:42:13;11.73;;;10.20;;
2039;SDS011;1025;42.686;23.350;2023-08-24T13:44:41;11.60;;;10.50;;
2039;SDS011;1025;42.686;23.350;2023-08-24T13:47:08;11.50;;;9.70;;
2039;SDS011;1025;42.686;23.350;2023-08-24T13:49:35;10.47;;;9.67;;
2039;SDS011;1025;42.686;23.350;2023-08-24T13:52:02;11.60;;;10.57;;
2039;SDS011;1025;42.686;23.350;2023-08-24T13:54:32;9.47;;;8.67;;
2039;SDS011;1025;42.686;23.350;2023-08-24T13:56:59;11.47;;;10.33;;
2039;SDS011;1025;42.686;23.350;2023-08-24T13:59:26;12.77;;;11.70;;
2039;SDS011;1025;42.686;23.350;2023-08-24T14:01:55;12.40;;;11.10;;
2039;SDS011;1025;42.686;23.350;2023-08-24T14:04:21;17.30;;;11.50;;
2039;SDS011;1025;42.686;23.350;2023-08-24T14:06:48;12.67;;;10.87;;
2039;SDS011;1025;42.686;23.350;2023-08-24T14:09:14;12.80;;;11.33;;
2039;SDS011;1025;42.686;23.350;2023-08-24T14:11:43;11.60;;;10.40;;
2039;SDS011;1025;42.686;23.350;2023-08-24T14:14:10;13.17;;;12.13;;
2039;SDS011;1025;42.686;23.350;2023-08-24T14:16:37;17.07;;;11.60;;
2039;SDS011;1025;42.686;23.350;2023-08-24T14:19:05;12.10;;;10.80;;
2039;SDS011;1025;42.686;23.350;2023-08-24T14:21:32;12.90;;;11.90;;
2039;SDS011;1025;42.686;23.350;2023-08-24T14:23:58;21.33;;;11.80;;
2039;SDS011;1025;42.686;23.350;2023-08-24T14:26:26;14.03;;;12.70;;
2039;SDS011;1025;42.686;23.350;2023-08-24T14:28:53;12.40;;;11.27;;
2039;SDS011;1025;42.686;23.350;2023-08-24T14:31:20;13.03;;;11.93;;
2039;SDS011;1025;42.686;23.350;2023-08-24T14:33:47;12.93;;;12.03;;
2039;SDS011;1025;42.686;23.350;2023-08-24T14:36:15;12.20;;;11.13;;
2039;SDS011;1025;42.686;23.350;2023-08-24T14:38:41;12.40;;;11.40;;
2039;SDS011;1025;42.686;23.350;2023-08-24T14:41:09;10.87;;;10.07;;
2039;SDS011;1025;42.686;23.350;2023-08-24T14:43:37;12.33;;;11.40;;
2039;SDS011;1025;42.686;23.350;2023-08-24T14:46:03;13.50;;;11.40;;
2039;SDS011;1025;42.686;23.350;2023-08-24T14:48:30;12.60;;;11.50;;